Time;durP1;ratioP1;P1;durP2;ratioP2;P2;SDS_P1;SDS_P2;PMS_P1;PMS_P2;Temp;Humidity;BMP_temperature;BMP_pressure;BME280_temperature;BME280_humidity;BME280_pressure;Samples;Min_cycle;Max_cycle;Signal;HPM_P1;HPM_P2
2023/05/04 00:01:03;;;;;;;9.38;5.18;;;6.00;99.90;;;;;;5053198;28;20040;-80
2023/05/04 00:03:29;;;;;;;10.43;5.25;;;6.00;99.90;;;;;;5033626;28;20049;-80
2023/05/04 00:05:54;;;;;;;7.03;5.43;;;6.00;99.90;;;;;;5050591;28;20041;-80
2023/05/04 00:08:20;;;;;;;8.73;5.53;;;6.00;99.90;;;;;;5032942;28;20418;-80
2023/05/04 00:10:46;;;;;;;7.35;5.10;;;5.70;99.90;;;;;;5051644;28;20127;-80
2023/05/04 00:13:11;;;;;;;7.60;5.00;;;5.90;99.90;;;;;;5027507;28;20690;-81
2023/05/04 00:15:37;;;;;;;7.07;4.90;;;5.90;99.90;;;;;;5014554;28;20053;-80
2023/05/04 00:18:03;;;;;;;8.73;5.05;;;5.90;99.90;;;;;;5032668;28;20061;-80
2023/05/04 00:20:29;;;;;;;10.70;5.45;;;5.90;99.90;;;;;;5050258;28;20049;-80
2023/05/04 00:22:55;;;;;;;8.27;5.35;;;5.90;99.90;;;;;;5039253;28;20098;-80
2023/05/04 00:25:20;;;;;;;9.27;5.53;;;5.90;99.90;;;;;;5051956;28;20051;-80
2023/05/04 00:27:46;;;;;;;10.05;5.28;;;5.80;99.90;;;;;;5032743;28;20041;-80
2023/05/04 00:30:12;;;;;;;8.63;5.80;;;5.90;99.90;;;;;;5050529;28;20051;-80
2023/05/04 00:32:37;;;;;;;9.43;5.10;;;5.80;99.90;;;;;;5032474;28;20052;-80
2023/05/04 00:35:03;;;;;;;9.18;5.18;;;5.80;99.90;;;;;;5051022;28;20049;-80
2023/05/04 00:37:28;;;;;;;8.82;5.40;;;5.80;99.90;;;;;;5048907;28;20525;-80
2023/05/04 00:39:54;;;;;;;9.40;5.53;;;5.80;99.90;;;;;;5032010;28;20048;-80
2023/05/04 00:42:20;;;;;;;11.85;5.82;;;5.80;99.90;;;;;;5051156;28;20056;-80
2023/05/04 00:44:45;;;;;;;7.95;5.10;;;5.70;99.90;;;;;;5051261;28;20614;-80
2023/05/04 00:47:12;;;;;;;7.50;5.20;;;5.70;99.90;;;;;;5033770;28;20069;-80
2023/05/04 00:49:38;;;;;;;9.23;5.10;;;5.70;99.90;;;;;;5049658;28;20076;-79
2023/05/04 00:52:04;;;;;;;9.15;5.40;;;5.70;99.90;;;;;;5031819;28;20496;-79
2023/05/04 00:54:31;;;;;;;8.50;5.05;;;5.70;99.90;;;;;;5047483;28;20049;-80
2023/05/04 00:56:57;;;;;;;6.95;4.88;;;5.70;99.90;;;;;;5051081;28;20497;-80
2023/05/04 00:59:22;;;;;;;9.05;5.18;;;5.70;99.90;;;;;;5046950;28;20045;-80
2023/05/04 01:01:48;;;;;;;9.05;5.40;;;5.60;99.90;;;;;;5032945;28;20494;-80
2023/05/04 01:04:14;;;;;;;7.32;4.97;;;5.60;99.90;;;;;;5048953;28;20037;-80
2023/05/04 01:06:57;;;;;;;8.63;5.60;;;5.60;99.90;;;;;;5029065;28;20404;-80
2023/05/04 01:09:28;;;;;;;;;;;5.60;99.90;;;;;;5030646;28;20048;-80
2023/05/04 01:12:07;;;;;;;7.28;4.95;;;5.10;99.90;;;;;;5050821;28;20007;-79
2023/05/04 01:14:36;;;;;;;7.13;5.00;;;5.50;99.90;;;;;;5050626;28;20044;-79
2023/05/04 01:17:06;;;;;;;13.48;5.90;;;5.50;99.90;;;;;;5031758;28;20072;-79
2023/05/04 01:19:32;;;;;;;9.43;5.47;;;5.50;99.90;;;;;;5050429;28;20045;-80
2023/05/04 01:21:58;;;;;;;7.82;5.80;;;5.50;99.90;;;;;;5025728;28;20147;-78
2023/05/04 01:24:25;;;;;;;8.27;5.45;;;6.10;99.90;;;;;;5028275;28;20128;-80
2023/05/04 01:26:56;;;;;;;8.40;5.50;;;5.50;99.90;;;;;;5032307;28;20479;-80
2023/05/04 01:29:33;;;;;;;10.68;5.60;;;5.40;99.90;;;;;;5049207;28;20521;-80
2023/05/04 01:32:00;;;;;;;7.28;5.22;;;5.40;99.90;;;;;;5032718;28;20567;-79
2023/05/04 01:34:26;;;;;;;9.35;5.32;;;5.40;99.90;;;;;;5050634;28;20072;-80
2023/05/04 01:36:52;;;;;;;12.23;6.28;;;5.40;99.90;;;;;;5032062;28;20071;-80
2023/05/04 01:39:18;;;;;;;9.57;5.90;;;5.40;99.90;;;;;;5050305;28;20053;-79
2023/05/04 01:41:43;;;;;;;9.70;5.53;;;5.40;99.90;;;;;;5051607;28;20130;-79
2023/05/04 01:44:09;;;;;;;8.82;5.57;;;5.40;99.90;;;;;;5031037;28;20103;-80
2023/05/04 01:46:34;;;;;;;10.23;6.20;;;5.40;99.90;;;;;;5050933;28;20045;-80
2023/05/04 01:49:00;;;;;;;9.60;5.63;;;5.40;99.90;;;;;;5049738;28;20049;-80
2023/05/04 01:51:25;;;;;;;9.40;6.32;;;5.30;99.90;;;;;;5050108;28;20821;-80
2023/05/04 01:53:51;;;;;;;11.63;6.65;;;5.40;99.90;;;;;;5049363;28;20053;-80
2023/05/04 01:56:17;;;;;;;9.40;5.93;;;5.40;99.90;;;;;;5046124;28;20136;-80
2023/05/04 01:58:42;;;;;;;11.07;5.85;;;5.40;99.90;;;;;;5043522;28;20106;-80
2023/05/04 02:01:08;;;;;;;8.80;5.68;;;5.40;99.90;;;;;;5031323;28;20045;-80
2023/05/04 02:03:33;;;;;;;10.20;5.63;;;5.40;99.90;;;;;;5031715;28;20045;-80
2023/05/04 02:05:59;;;;;;;9.90;5.82;;;5.40;99.90;;;;;;5030759;28;20057;-80
2023/05/04 02:08:25;;;;;;;9.95;6.15;;;5.50;99.90;;;;;;5049458;28;20044;-80
2023/05/04 02:10:51;;;;;;;6.45;5.70;;;5.40;99.90;;;;;;5047854;28;20077;-79
2023/05/04 02:13:17;;;;;;;8.88;5.80;;;5.50;99.90;;;;;;5031484;28;20471;-79
2023/05/04 02:15:43;;;;;;;9.20;5.90;;;5.50;99.90;;;;;;5030239;28;20077;-80
2023/05/04 02:18:09;;;;;;;8.60;5.60;;;5.40;99.90;;;;;;5002435;28;20079;-80
2023/05/04 02:20:34;;;;;;;9.77;6.35;;;5.40;99.90;;;;;;5048419;28;20041;-80
2023/05/04 02:23:00;;;;;;;10.25;5.63;;;5.50;99.90;;;;;;5049815;28;20107;-80
2023/05/04 02:25:26;;;;;;;9.90;6.47;;;5.40;99.90;;;;;;5046921;28;20095;-80
2023/05/04 02:27:51;;;;;;;9.48;6.30;;;5.50;99.90;;;;;;5048642;28;20049;-80
2023/05/04 02:30:17;;;;;;;13.77;6.05;;;5.50;99.90;;;;;;5031702;28;20143;-79
2023/05/04 02:32:43;;;;;;;10.48;6.65;;;5.50;99.90;;;;;;5032001;28;20037;-79
2023/05/04 02:35:08;;;;;;;8.85;6.28;;;5.40;99.90;;;;;;5049158;28;20395;-79
2023/05/04 02:37:34;;;;;;;10.95;6.40;;;5.50;99.90;;;;;;5029352;28;20044;-80
2023/05/04 02:40:00;;;;;;;11.90;6.78;;;5.50;99.90;;;;;;5030716;28;20419;-80
2023/05/04 02:42:26;;;;;;;10.45;6.25;;;5.50;99.90;;;;;;5047341;28;20699;-79
2023/05/04 02:44:51;;;;;;;11.93;6.55;;;5.20;99.90;;;;;;5031142;28;20040;-80
2023/05/04 02:47:17;;;;;;;11.93;7.30;;;5.50;99.90;;;;;;5031371;28;20633;-80
2023/05/04 02:49:43;;;;;;;11.98;6.43;;;5.50;99.90;;;;;;5030743;28;20048;-80
2023/05/04 02:52:08;;;;;;;11.68;6.72;;;5.50;99.90;;;;;;5047892;28;20093;-79
2023/05/04 02:54:34;;;;;;;12.00;6.88;;;5.50;99.90;;;;;;5047607;28;20041;-79
2023/05/04 02:57:00;;;;;;;12.73;6.82;;;5.50;99.90;;;;;;5048321;28;20056;-79
2023/05/04 02:59:25;;;;;;;9.35;6.40;;;5.50;99.90;;;;;;5047662;28;20041;-79
2023/05/04 03:01:51;;;;;;;13.60;6.72;;;5.50;99.90;;;;;;5048423;28;20609;-80
2023/05/04 03:04:17;;;;;;;12.80;6.65;;;5.50;99.90;;;;;;5048291;28;20044;-79
2023/05/04 03:06:42;;;;;;;11.55;6.72;;;5.50;99.90;;;;;;5047308;28;20127;-79
2023/05/04 03:09:08;;;;;;;9.75;6.82;;;5.50;99.90;;;;;;5048043;28;20041;-79
2023/05/04 03:11:34;;;;;;;10.35;6.25;;;5.50;99.90;;;;;;5047818;28;20049;-80
2023/05/04 03:14:00;;;;;;;10.70;6.40;;;5.30;99.90;;;;;;5047532;28;20086;-79
2023/05/04 03:16:25;;;;;;;10.35;7.03;;;5.50;99.90;;;;;;5047290;28;20072;-80
2023/05/04 03:18:51;;;;;;;10.80;6.07;;;5.50;99.90;;;;;;5047696;28;20049;-79
2023/05/04 03:21:16;;;;;;;12.38;6.65;;;5.60;99.90;;;;;;5034758;28;20045;-80
2023/05/04 03:23:42;;;;;;;9.68;6.45;;;5.60;99.90;;;;;;5041729;28;20041;-80
2023/05/04 03:26:07;;;;;;;8.95;6.15;;;5.60;99.90;;;;;;5029620;28;20175;-80
2023/05/04 03:28:33;;;;;;;13.73;7.03;;;5.60;99.90;;;;;;5027420;28;20049;-80
2023/05/04 03:30:58;;;;;;;10.00;5.97;;;5.60;99.90;;;;;;5029892;28;20447;-80
2023/05/04 03:33:24;;;;;;;11.48;6.60;;;5.60;99.90;;;;;;5046859;28;20036;-80
2023/05/04 03:35:50;;;;;;;11.98;6.38;;;5.70;99.90;;;;;;5047589;28;20045;-79
2023/05/04 03:38:15;;;;;;;8.57;6.38;;;5.60;99.90;;;;;;5047162;28;20157;-79
2023/05/04 03:40:41;;;;;;;10.00;6.13;;;5.60;99.90;;;;;;5030123;28;20052;-78
2023/05/04 03:43:07;;;;;;;9.63;6.32;;;5.70;99.90;;;;;;5046165;28;20415;-79
2023/05/04 03:45:33;;;;;;;9.05;6.50;;;5.70;99.90;;;;;;5029828;28;20045;-80
2023/05/04 03:47:58;;;;;;;11.00;6.50;;;5.70;99.90;;;;;;5030066;28;20045;-80
2023/05/04 03:50:24;;;;;;;11.50;6.88;;;5.70;99.90;;;;;;5047128;28;20505;-80
2023/05/04 03:52:50;;;;;;;11.55;6.50;;;5.70;99.90;;;;;;5047448;28;20044;-79
2023/05/04 03:55:16;;;;;;;10.18;6.53;;;5.60;99.90;;;;;;5047765;28;20056;-80
2023/05/04 03:57:41;;;;;;;10.60;6.40;;;5.70;99.90;;;;;;5030068;28;20043;-80
2023/05/04 04:00:08;;;;;;;12.15;6.80;;;5.60;99.90;;;;;;5029995;28;20049;-79
2023/05/04 04:02:33;;;;;;;8.05;5.60;;;5.70;99.90;;;;;;5047772;28;20122;-80
2023/05/04 04:04:59;;;;;;;12.20;6.53;;;5.70;99.90;;;;;;5037537;28;20094;-80
2023/05/04 04:07:25;;;;;;;8.73;6.75;;;5.70;99.90;;;;;;5047497;28;20049;-80
2023/05/04 04:09:51;;;;;;;12.10;6.57;;;5.70;99.90;;;;;;5045337;28;20441;-81
2023/05/04 04:12:19;;;;;;;10.65;6.50;;;6.40;99.90;;;;;;5047598;28;20073;-80
2023/05/04 04:14:45;;;;;;;10.20;6.28;;;5.70;99.90;;;;;;5046749;28;20052;-81
2023/05/04 04:17:10;;;;;;;10.15;6.32;;;5.70;99.90;;;;;;5029325;28;20045;-81
2023/05/04 04:19:37;;;;;;;10.85;6.65;;;5.70;99.90;;;;;;5027644;28;20170;-80
2023/05/04 04:22:03;;;;;;;9.98;6.45;;;5.70;99.90;;;;;;5027372;28;20049;-80
2023/05/04 04:24:28;;;;;;;11.13;6.75;;;5.70;99.90;;;;;;5045533;28;20040;-80
2023/05/04 04:26:54;;;;;;;10.77;6.35;;;5.70;99.90;;;;;;5027469;28;20044;-80
2023/05/04 04:29:19;;;;;;;10.65;6.70;;;5.70;99.90;;;;;;5028836;28;20092;-80
2023/05/04 04:31:45;;;;;;;9.98;6.93;;;5.70;99.90;;;;;;5027721;28;20101;-80
2023/05/04 04:34:10;;;;;;;10.05;6.38;;;5.70;99.90;;;;;;5044390;28;20041;-81
2023/05/04 04:36:36;;;;;;;14.20;6.32;;;5.70;99.90;;;;;;5042991;28;20511;-80
2023/05/04 04:39:04;;;;;;;9.68;7.05;;;5.70;99.90;;;;;;5046468;28;20124;-81
2023/05/04 04:41:30;;;;;;;10.52;5.93;;;5.70;99.90;;;;;;5049969;28;20059;-79
2023/05/04 04:43:56;;;;;;;17.27;7.40;;;5.80;99.90;;;;;;5026447;28;20037;-79
2023/05/04 04:46:21;;;;;;;9.35;6.30;;;5.70;99.90;;;;;;5009858;28;20404;-79
2023/05/04 04:48:47;;;;;;;12.45;6.72;;;5.80;99.90;;;;;;5031223;28;20049;-79
2023/05/04 04:51:12;;;;;;;9.65;7.10;;;5.80;99.90;;;;;;5032591;28;20124;-79
2023/05/04 04:53:41;;;;;;;11.70;6.68;;;5.80;99.90;;;;;;5048619;28;20124;-80
2023/05/04 04:56:08;;;;;;;9.90;6.10;;;6.20;99.90;;;;;;5050525;28;20037;-80
2023/05/04 04:58:34;;;;;;;13.60;6.88;;;5.90;99.90;;;;;;5050579;28;20443;-80
2023/05/04 05:01:02;;;;;;;14.75;7.05;;;5.90;99.90;;;;;;5050049;28;20060;-80
2023/05/04 05:03:27;;;;;;;11.45;7.40;;;5.90;99.90;;;;;;5049507;28;20131;-80
2023/05/04 05:05:54;;;;;;;9.82;6.72;;;6.00;99.90;;;;;;5024178;28;20072;-80
2023/05/04 05:08:20;;;;;;;10.18;6.95;;;6.00;99.90;;;;;;5030702;28;20131;-80
2023/05/04 05:10:45;;;;;;;11.43;6.82;;;6.10;99.90;;;;;;5049990;28;20514;-80
2023/05/04 05:13:11;;;;;;;12.32;6.97;;;6.20;99.90;;;;;;5031617;28;20393;-80
2023/05/04 05:15:36;;;;;;;10.52;6.22;;;6.20;99.90;;;;;;5047311;28;20067;-80
2023/05/04 05:18:02;;;;;;;11.35;7.30;;;6.30;99.90;;;;;;5048736;28;20044;-80
2023/05/04 05:20:28;;;;;;;12.88;7.63;;;6.30;99.90;;;;;;5047295;28;20119;-79
2023/05/04 05:22:54;;;;;;;12.10;6.97;;;5.90;99.90;;;;;;5049441;28;20142;-79
2023/05/04 05:25:19;;;;;;;9.60;7.18;;;6.40;99.90;;;;;;5045637;28;20037;-81
2023/05/04 05:27:45;;;;;;;10.77;6.82;;;6.40;99.90;;;;;;5015621;28;20521;-81
2023/05/04 05:30:13;;;;;;;13.48;7.03;;;6.50;99.90;;;;;;5029165;28;20033;-81
2023/05/04 05:32:39;;;;;;;13.60;7.70;;;6.70;99.90;;;;;;5048591;28;20130;-81
2023/05/04 05:35:05;;;;;;;9.50;7.28;;;6.60;99.90;;;;;;5030242;28;20178;-81
2023/05/04 05:37:31;;;;;;;11.88;6.72;;;6.70;99.90;;;;;;5048155;28;20044;-79
2023/05/04 05:39:57;;;;;;;8.93;6.30;;;6.80;99.90;;;;;;5047329;28;20784;-80
2023/05/04 05:42:23;;;;;;;11.27;7.22;;;6.80;99.90;;;;;;5050426;28;20045;-81
2023/05/04 05:44:48;;;;;;;11.85;7.63;;;6.80;99.90;;;;;;5049494;28;20472;-80
2023/05/04 05:47:14;;;;;;;13.50;6.50;;;7.00;99.90;;;;;;5049215;28;20044;-80
2023/05/04 05:49:40;;;;;;;9.27;6.93;;;7.20;99.90;;;;;;5014474;28;20401;-80
2023/05/04 05:52:06;;;;;;;11.25;7.50;;;7.30;99.90;;;;;;5048757;28;20071;-80
2023/05/04 05:54:31;;;;;;;10.05;7.28;;;7.60;99.90;;;;;;5030865;28;20041;-80
2023/05/04 05:56:57;;;;;;;12.40;6.97;;;7.80;99.90;;;;;;5049815;28;20049;-80
2023/05/04 05:59:23;;;;;;;9.15;7.30;;;8.10;99.90;;;;;;5030952;28;20045;-80
2023/05/04 06:01:49;;;;;;;9.52;7.18;;;8.40;99.90;;;;;;5047661;28;20780;-80
2023/05/04 06:04:14;;;;;;;12.15;6.72;;;10.10;99.90;;;;;;5013245;28;20045;-80
2023/05/04 06:06:40;;;;;;;10.07;6.75;;;9.20;99.90;;;;;;5038958;28;20112;-80
2023/05/04 06:09:06;;;;;;;10.45;7.28;;;9.30;99.90;;;;;;5026929;28;20427;-79
2023/05/04 06:11:31;;;;;;;10.10;6.53;;;9.40;99.90;;;;;;5048118;28;20045;-80
2023/05/04 06:13:57;;;;;;;12.10;7.47;;;9.30;99.90;;;;;;5031540;28;20060;-81
2023/05/04 06:16:22;;;;;;;9.60;6.63;;;9.10;99.90;;;;;;5048849;28;20040;-81
2023/05/04 06:18:48;;;;;;;10.13;6.50;;;9.00;99.90;;;;;;5048499;28;20653;-80
2023/05/04 06:21:14;;;;;;;9.68;6.93;;;8.80;99.90;;;;;;5048800;28;20060;-80
2023/05/04 06:23:39;;;;;;;10.20;6.70;;;8.80;99.90;;;;;;5013366;28;20375;-80
2023/05/04 06:26:06;;;;;;;16.10;6.97;;;8.70;99.90;;;;;;5046326;28;20158;-80
2023/05/04 06:28:32;;;;;;;11.57;6.95;;;8.70;99.90;;;;;;5047889;28;20044;-81
2023/05/04 06:30:58;;;;;;;11.15;6.63;;;8.70;99.90;;;;;;5049295;28;20045;-81
2023/05/04 06:33:24;;;;;;;12.93;6.57;;;8.70;99.90;;;;;;5048458;28;20403;-80
2023/05/04 06:35:51;;;;;;;11.35;6.82;;;8.80;99.90;;;;;;5014177;28;20057;-80
2023/05/04 06:38:17;;;;;;;11.00;6.95;;;8.90;99.90;;;;;;5047090;28;20484;-81
2023/05/04 06:40:42;;;;;;;9.38;7.00;;;8.80;99.90;;;;;;5029322;28;20554;-81
2023/05/04 06:43:08;;;;;;;11.73;6.72;;;9.30;99.90;;;;;;5046934;28;20048;-79
2023/05/04 06:45:34;;;;;;;10.13;6.63;;;8.90;99.90;;;;;;5030589;28;20491;-80
2023/05/04 06:48:01;;;;;;;10.68;6.82;;;9.00;99.90;;;;;;5030628;28;20511;-81
2023/05/04 06:50:27;;;;;;;10.63;6.88;;;9.00;99.90;;;;;;5030736;28;20582;-81
2023/05/04 06:53:02;;;;;;;10.95;6.90;;;9.00;99.90;;;;;;5030445;28;20078;-81
2023/05/04 06:55:27;;;;;;;10.57;6.53;;;9.10;99.90;;;;;;5048293;28;20060;-81
2023/05/04 06:57:53;;;;;;;10.98;7.15;;;9.10;99.90;;;;;;5029776;28;20041;-81
2023/05/04 07:00:19;;;;;;;9.93;7.10;;;9.20;99.90;;;;;;5012053;28;20048;-81
2023/05/04 07:02:45;;;;;;;11.13;7.07;;;9.30;99.90;;;;;;5048060;28;20057;-81
2023/05/04 07:05:11;;;;;;;9.50;6.47;;;9.40;99.90;;;;;;5029165;28;20045;-81
2023/05/04 07:07:37;;;;;;;9.57;6.68;;;9.50;99.90;;;;;;5048160;28;20053;-81
2023/05/04 07:10:03;;;;;;;11.20;6.63;;;9.60;99.90;;;;;;5047720;28;20041;-81
2023/05/04 07:12:28;;;;;;;11.60;6.63;;;9.70;99.90;;;;;;5047353;28;20743;-82
2023/05/04 07:14:54;;;;;;;10.18;6.20;;;9.70;99.90;;;;;;5030089;28;20088;-81
2023/05/04 07:17:20;;;;;;;10.00;6.82;;;9.80;99.90;;;;;;5046950;28;20041;-82
2023/05/04 07:19:50;;;;;;;8.68;6.55;;;10.00;99.90;;;;;;5047614;28;20088;-81
2023/05/04 07:22:16;;;;;;;8.57;6.22;;;10.10;99.90;;;;;;5048677;28;20080;-81
2023/05/04 07:24:42;;;;;;;10.93;6.57;;;10.30;99.90;;;;;;5047823;28;20068;-80
2023/05/04 07:27:09;;;;;;;10.82;7.43;;;10.50;99.90;;;;;;5047608;28;20477;-82
2023/05/04 07:29:35;;;;;;;12.65;7.03;;;10.60;99.90;;;;;;5047471;28;20132;-81
2023/05/04 07:32:00;;;;;;;8.77;6.53;;;10.80;99.90;;;;;;5047859;28;20135;-82
2023/05/04 07:34:26;;;;;;;8.65;6.35;;;10.80;99.90;;;;;;5046609;28;20082;-82
2023/05/04 07:36:52;;;;;;;10.77;7.18;;;10.80;99.90;;;;;;5048188;28;20096;-80
2023/05/04 07:39:17;;;;;;;10.18;6.80;;;11.00;99.90;;;;;;5047302;28;20060;-81
2023/05/04 07:41:44;;;;;;;9.80;6.80;;;11.30;99.90;;;;;;5043234;28;20152;-82
2023/05/04 07:44:11;;;;;;;8.80;6.32;;;10.80;99.90;;;;;;5045343;28;20095;-82
2023/05/04 07:46:37;;;;;;;9.27;6.70;;;10.90;99.90;;;;;;5039449;28;20075;-81
2023/05/04 07:49:03;;;;;;;11.88;6.43;;;11.00;99.90;;;;;;5045672;28;20114;-80
2023/05/04 07:51:29;;;;;;;9.52;7.13;;;11.20;99.90;;;;;;5043928;28;20036;-81
2023/05/04 07:53:55;;;;;;;7.20;6.03;;;11.50;99.90;;;;;;5043002;28;20045;-81
2023/05/04 07:56:21;;;;;;;11.05;7.13;;;11.30;99.90;;;;;;5045667;28;20045;-80
2023/05/04 07:58:46;;;;;;;9.70;6.78;;;11.40;99.90;;;;;;5027876;28;20394;-81
2023/05/04 08:01:12;;;;;;;13.85;7.60;;;11.50;99.90;;;;;;5035316;28;20073;-81
2023/05/04 08:03:37;;;;;;;8.98;6.45;;;11.60;99.90;;;;;;5037906;28;20079;-82
2023/05/04 08:06:03;;;;;;;11.32;6.90;;;11.90;99.90;;;;;;5036497;28;20178;-82
2023/05/04 08:08:29;;;;;;;16.83;7.20;;;11.90;99.90;;;;;;5011179;28;20039;-82
2023/05/04 08:10:54;;;;;;;10.52;7.13;;;12.00;99.90;;;;;;5043076;28;20059;-82
2023/05/04 08:13:20;;;;;;;11.63;6.90;;;12.10;99.90;;;;;;5028196;28;20119;-82
2023/05/04 08:15:46;;;;;;;9.02;7.35;;;12.30;99.90;;;;;;5048267;28;20079;-81
2023/05/04 08:18:11;;;;;;;8.45;6.15;;;12.50;99.90;;;;;;5033930;28;20431;-82
2023/05/04 08:20:37;;;;;;;10.02;7.05;;;12.50;99.90;;;;;;5031449;28;20127;-81
2023/05/04 08:23:03;;;;;;;10.95;5.97;;;12.50;99.90;;;;;;5051466;28;20102;-79
2023/05/04 08:25:29;;;;;;;13.60;7.10;;;12.60;99.90;;;;;;5051511;28;20045;-80
2023/05/04 08:27:55;;;;;;;10.07;6.20;;;12.70;99.90;;;;;;5051265;28;20055;-80
2023/05/04 08:30:20;;;;;;;10.00;6.53;;;12.80;99.90;;;;;;5015279;28;20064;-80
2023/05/04 08:32:47;;;;;;;9.48;5.57;;;12.90;99.90;;;;;;5050322;28;20040;-80
2023/05/04 08:35:12;;;;;;;8.02;6.60;;;13.00;99.90;;;;;;5051967;28;20048;-80
2023/05/04 08:37:38;;;;;;;8.07;5.78;;;13.10;99.90;;;;;;5050427;28;20048;-80
2023/05/04 08:40:04;;;;;;;8.73;5.95;;;13.10;99.90;;;;;;5041010;28;20427;-80
2023/05/04 08:42:31;;;;;;;7.10;6.07;;;13.20;99.90;;;;;;5030851;28;20522;-82
2023/05/04 08:44:58;;;;;;;7.13;5.53;;;13.30;99.90;;;;;;5031386;28;20471;-80
2023/05/04 08:47:25;;;;;;;7.40;5.35;;;13.40;99.90;;;;;;5031355;28;20467;-80
2023/05/04 08:49:55;;;;;;;11.45;6.38;;;13.40;99.90;;;;;;5033410;28;20052;-80
2023/05/04 08:52:25;;;;;;;8.10;5.55;;;13.70;99.90;;;;;;5051116;28;20555;-80
2023/05/04 08:54:54;;;;;;;9.70;5.75;;;13.70;99.90;;;;;;5033340;28;20045;-80
2023/05/04 08:57:22;;;;;;;9.60;5.95;;;13.80;99.90;;;;;;5051009;28;20041;-80
2023/05/04 08:59:52;;;;;;;7.72;5.43;;;14.10;99.90;;;;;;5032479;28;20044;-80
2023/05/04 09:02:22;;;;;;;13.50;6.20;;;14.30;98.60;;;;;;5032156;28;20049;-79
2023/05/04 09:04:52;;;;;;;9.57;6.00;;;14.40;98.30;;;;;;5049305;28;20092;-79
2023/05/04 09:07:19;;;;;;;8.30;5.68;;;14.50;98.40;;;;;;5049803;28;20084;-79
2023/05/04 09:09:46;;;;;;;8.43;6.32;;;14.70;97.90;;;;;;5049599;28;21119;-79
2023/05/04 09:12:12;;;;;;;7.97;6.30;;;14.90;96.80;;;;;;5050020;28;20052;-78
2023/05/04 09:14:38;;;;;;;8.48;5.78;;;15.00;96.40;;;;;;5050328;28;20041;-80
2023/05/04 09:17:16;;;;;;;10.98;6.55;;;15.10;95.90;;;;;;5031827;28;20159;-80
2023/05/04 09:19:43;;;;;;;7.03;5.93;;;15.10;94.40;;;;;;5048838;28;20055;-79
2023/05/04 09:22:16;;;;;;;8.55;5.63;;;15.10;94.60;;;;;;5030407;28;20053;-80
2023/05/04 09:24:42;;;;;;;8.02;5.47;;;15.20;93.10;;;;;;5048552;28;20084;-79
2023/05/04 09:27:12;;;;;;;7.55;5.57;;;15.50;94.00;;;;;;5045373;28;20132;-79
2023/05/04 09:29:39;;;;;;;8.68;5.68;;;15.40;93.00;;;;;;5048574;28;20048;-79
2023/05/04 09:32:09;;;;;;;7.40;5.38;;;15.50;92.50;;;;;;5050178;28;20326;-78
2023/05/04 09:34:36;;;;;;;7.32;5.22;;;15.60;91.70;;;;;;5048218;28;20159;-80
2023/05/04 09:37:02;;;;;;;11.30;5.60;;;15.60;91.30;;;;;;5034775;28;20777;-80
2023/05/04 09:39:29;;;;;;;8.35;5.13;;;15.90;91.60;;;;;;5047623;28;20118;-80
2023/05/04 09:41:55;;;;;;;9.02;5.28;;;15.90;90.90;;;;;;5030001;28;20651;-79
2023/05/04 09:44:22;;;;;;;6.88;5.22;;;16.00;90.10;;;;;;5030583;28;20061;-79
2023/05/04 09:46:55;;;;;;;6.93;5.30;;;15.90;88.80;;;;;;5048759;28;20116;-79
2023/05/04 09:49:34;;;;;;;7.55;4.82;;;15.90;85.00;;;;;;5049825;28;20049;-79
2023/05/04 09:52:01;;;;;;;6.43;5.05;;;15.90;85.10;;;;;;5049166;28;20075;-81
2023/05/04 09:54:31;;;;;;;6.55;4.25;;;16.10;86.90;;;;;;5049361;28;20052;-79
2023/05/04 09:57:14;;;;;;;7.00;4.93;;;16.30;86.30;;;;;;5049940;28;20041;-79
2023/05/04 09:59:40;;;;;;;9.80;5.15;;;16.50;83.70;;;;;;5047740;28;20064;-81
2023/05/04 10:02:07;;;;;;;6.75;4.57;;;16.60;83.90;;;;;;5013944;28;20041;-79
2023/05/04 10:04:33;;;;;;;6.85;4.60;;;16.80;82.40;;;;;;5030010;28;20049;-80
2023/05/04 10:07:03;;;;;;;7.07;4.38;;;17.00;80.30;;;;;;5016906;28;20077;-80
2023/05/04 10:09:30;;;;;;;6.88;4.68;;;17.10;73.20;;;;;;5029452;28;20091;-80
2023/05/04 10:12:00;;;;;;;7.45;4.50;;;17.10;76.60;;;;;;5032393;28;20044;-81
2023/05/04 10:14:33;;;;;;;8.18;4.20;;;17.20;74.50;;;;;;5029123;28;20285;-80
2023/05/04 10:17:17;;;;;;;6.00;4.35;;;17.10;69.70;;;;;;5013297;28;20048;-79
2023/05/04 10:20:08;;;;;;;6.47;4.07;;;17.20;68.30;;;;;;5036229;28;20055;-80
2023/05/04 10:22:48;;;;;;;6.10;4.28;;;17.40;69.40;;;;;;5031040;28;20507;-79
2023/05/04 10:25:48;;;;;;;5.95;4.47;;;17.80;71.80;;;;;;5047378;28;20606;-80
2023/05/04 10:28:41;;;;;;;5.97;4.20;;;17.50;64.80;;;;;;5048754;28;20045;-80
2023/05/04 10:31:07;;;;;;;5.47;4.18;;;17.40;65.50;;;;;;5049224;28;20361;-80
2023/05/04 10:33:43;;;;;;;7.07;4.50;;;17.40;69.20;;;;;;5045845;28;20037;-80
2023/05/04 10:36:10;;;;;;;5.43;4.25;;;17.60;65.30;;;;;;5047845;28;20083;-80
2023/05/04 10:38:37;;;;;;;5.43;4.03;;;17.80;68.20;;;;;;5029566;28;20045;-80
2023/05/04 10:41:16;;;;;;;5.95;4.20;;;18.00;67.30;;;;;;5009851;28;20054;-81
2023/05/04 10:43:47;;;;;;;8.73;4.25;;;18.00;66.10;;;;;;5027133;28;20050;-81
2023/05/04 10:46:20;;;;;;;6.40;4.10;;;18.00;65.10;;;;;;5006496;28;20046;-80
2023/05/04 10:48:46;;;;;;;7.80;3.67;;;18.20;63.10;;;;;;5007909;28;20042;-80
2023/05/04 10:51:23;;;;;;;5.32;4.55;;;18.20;64.90;;;;;;5008818;28;20053;-80
2023/05/04 10:53:49;;;;;;;9.20;4.95;;;18.30;61.90;;;;;;5005878;28;20049;-81
2023/05/04 10:56:21;;;;;;;6.22;4.10;;;18.30;62.00;;;;;;5010505;28;20054;-81
2023/05/04 10:58:48;;;;;;;5.85;3.92;;;18.30;60.40;;;;;;5021184;28;20038;-81
2023/05/04 11:01:13;;;;;;;5.93;4.00;;;18.30;61.20;;;;;;5008249;28;20676;-81
2023/05/04 11:03:40;;;;;;;5.72;4.00;;;18.40;61.90;;;;;;5007542;28;20108;-81
2023/05/04 11:06:22;;;;;;;4.97;3.78;;;18.60;61.70;;;;;;5008734;28;20053;-81
2023/05/04 11:08:58;;;;;;;6.07;4.07;;;18.60;58.50;;;;;;5008053;28;20100;-81
2023/05/04 11:11:24;;;;;;;8.38;4.05;;;18.60;59.60;;;;;;5007067;28;20057;-81
2023/05/04 11:13:50;;;;;;;5.38;3.90;;;18.50;60.10;;;;;;5007764;28;20049;-81
2023/05/04 11:16:26;;;;;;;6.88;4.28;;;18.50;59.40;;;;;;5019826;28;20050;-81
2023/05/04 11:19:06;;;;;;;4.55;3.60;;;18.50;58.90;;;;;;5008901;28;20056;-81
2023/05/04 11:21:32;;;;;;;8.73;3.92;;;18.50;58.80;;;;;;5007956;28;20103;-81
2023/05/04 11:23:59;;;;;;;5.35;3.50;;;18.50;59.30;;;;;;5007292;28;20415;-81
2023/05/04 11:26:25;;;;;;;5.72;4.20;;;18.30;59.00;;;;;;5008207;28;20049;-81
2023/05/04 11:28:51;;;;;;;8.25;4.32;;;18.40;59.70;;;;;;5006554;28;20046;-81
2023/05/04 11:31:18;;;;;;;6.20;4.10;;;18.40;59.30;;;;;;5007050;28;20050;-82
2023/05/04 11:33:53;;;;;;;6.00;3.88;;;18.40;59.30;;;;;;5015860;28;20069;-82
2023/05/04 11:36:20;;;;;;;11.48;4.07;;;18.50;58.20;;;;;;5008496;28;20400;-80
2023/05/04 11:38:46;;;;;;;7.15;4.25;;;18.50;58.80;;;;;;5007994;28;20510;-81
2023/05/04 11:41:12;;;;;;;4.97;4.10;;;18.70;59.30;;;;;;5044058;28;20148;-81
2023/05/04 11:43:40;;;;;;;7.97;3.90;;;18.80;58.90;;;;;;5046810;28;20181;-81
2023/05/04 11:46:07;;;;;;;6.28;3.60;;;18.90;59.20;;;;;;5013318;28;20546;-81
2023/05/04 11:48:35;;;;;;;5.80;4.38;;;18.90;59.10;;;;;;5046722;28;20040;-81
2023/05/04 11:51:05;;;;;;;5.53;4.22;;;19.00;58.30;;;;;;5045586;28;20439;-81
2023/05/04 11:53:38;;;;;;;4.40;3.60;;;19.20;58.50;;;;;;5047280;28;20053;-80
2023/05/04 11:56:05;;;;;;;6.25;3.85;;;19.20;56.40;;;;;;5047546;28;20049;-82
2023/05/04 11:58:30;;;;;;;5.85;4.40;;;19.30;56.70;;;;;;5029619;28;20499;-81
2023/05/04 12:00:57;;;;;;;5.38;3.90;;;19.30;56.30;;;;;;5045956;28;20471;-79
2023/05/04 12:03:27;;;;;;;7.63;3.78;;;19.40;56.10;;;;;;5029898;28;20056;-81
2023/05/04 12:05:55;;;;;;;5.70;4.00;;;19.50;55.40;;;;;;5047760;28;20037;-83
2023/05/04 12:08:33;;;;;;;6.22;3.75;;;19.50;55.60;;;;;;5046504;28;20072;-83
2023/05/04 12:11:27;;;;;;;6.43;3.88;;;19.60;55.20;;;;;;5046901;28;20128;-84
2023/05/04 12:14:12;;;;;;;5.45;3.50;;;19.60;54.70;;;;;;5045905;28;20049;-83
2023/05/04 12:16:38;;;;;;;5.97;3.50;;;19.50;54.50;;;;;;5011074;28;20128;-83
2023/05/04 12:19:09;;;;;;;5.10;3.35;;;19.40;54.10;;;;;;5046344;28;20049;-80
2023/05/04 12:21:35;;;;;;;3.83;3.33;;;19.40;54.10;;;;;;5028070;28;20045;-83
2023/05/04 12:24:02;;;;;;;3.97;3.20;;;19.50;55.00;;;;;;5045427;28;20049;-83
2023/05/04 12:26:28;;;;;;;5.57;3.47;;;19.70;55.20;;;;;;5045231;28;20041;-83
2023/05/04 12:28:55;;;;;;;6.43;3.85;;;20.00;55.70;;;;;;5027986;28;20933;-82
2023/05/04 12:31:21;;;;;;;6.18;3.95;;;19.90;54.30;;;;;;5011202;28;20120;-82
2023/05/04 12:33:48;;;;;;;6.43;4.13;;;20.00;54.00;;;;;;5045875;28;20058;-82
2023/05/04 12:36:14;;;;;;;4.93;3.40;;;19.70;54.20;;;;;;5027900;28;20061;-81
2023/05/04 12:38:43;;;;;;;7.53;3.63;;;19.70;54.10;;;;;;5042660;28;20042;-81
2023/05/04 12:41:10;;;;;;;4.95;3.38;;;19.70;53.60;;;;;;5028206;28;20094;-80
2023/05/04 12:43:36;;;;;;;5.47;3.63;;;19.70;53.50;;;;;;5028327;28;20124;-80
2023/05/04 12:46:02;;;;;;;4.68;3.45;;;19.70;53.60;;;;;;5046788;28;20128;-81
2023/05/04 12:48:31;;;;;;;4.55;3.92;;;19.90;53.90;;;;;;5046955;28;20053;-80